createdAt,value
2022-08-11T00:00:45.170Z,975.56
2022-08-11T00:01:45.162Z,975.55
2022-08-11T00:02:45.272Z,975.53
2022-08-11T00:03:45.150Z,975.52
2022-08-11T00:04:45.151Z,975.50
2022-08-11T00:05:45.140Z,975.47
2022-08-11T00:06:45.134Z,975.45
2022-08-11T00:07:45.129Z,975.49
2022-08-11T00:08:45.133Z,975.49
2022-08-11T00:09:45.119Z,975.49
2022-08-11T00:10:45.114Z,975.52
2022-08-11T00:11:45.110Z,975.47
2022-08-11T00:12:45.114Z,975.46
2022-08-11T00:13:45.098Z,975.47
2022-08-11T00:14:45.092Z,975.46
2022-08-11T00:15:45.083Z,975.43
2022-08-11T00:16:45.082Z,975.44
2022-08-11T00:17:45.074Z,975.47
2022-08-11T00:18:45.069Z,975.49
2022-08-11T00:20:11.514Z,975.49
2022-08-11T00:20:45.059Z,975.48
2022-08-11T00:22:04.268Z,975.49
2022-08-11T00:22:45.043Z,975.47
2022-08-11T00:23:45.038Z,975.49
2022-08-11T00:24:51.655Z,975.46
2022-08-11T00:25:45.027Z,975.45
2022-08-11T00:26:45.028Z,975.48
2022-08-11T00:27:45.013Z,975.50
2022-08-11T00:28:45.013Z,975.50
2022-08-11T00:29:51.674Z,975.49
2022-08-11T00:30:44.999Z,975.49
2022-08-11T00:31:44.992Z,975.54
2022-08-11T00:32:44.985Z,975.55
2022-08-11T00:33:45.438Z,975.54
2022-08-11T00:34:44.976Z,975.55
2022-08-11T00:35:51.414Z,975.56
2022-08-11T00:36:44.963Z,975.56
2022-08-11T00:37:44.957Z,975.58
2022-08-11T00:38:44.951Z,975.53
2022-08-11T00:39:45.037Z,975.53
2022-08-11T00:40:44.947Z,975.50
2022-08-11T00:41:44.935Z,975.53
2022-08-11T00:42:44.931Z,975.50
2022-08-11T00:43:44.921Z,975.48
2022-08-11T00:44:44.919Z,975.46
2022-08-11T00:45:44.910Z,975.46
2022-08-11T00:46:44.905Z,975.49
2022-08-11T00:47:44.897Z,975.47
2022-08-11T00:48:44.892Z,975.47
2022-08-11T00:49:44.887Z,975.46
2022-08-11T00:50:44.880Z,975.47
2022-08-11T00:52:05.836Z,975.45
2022-08-11T00:52:44.874Z,975.45
2022-08-11T00:53:44.863Z,975.42
2022-08-11T00:54:44.857Z,975.44
2022-08-11T00:55:47.074Z,975.42
2022-08-11T00:56:44.847Z,975.44
2022-08-11T00:57:44.837Z,975.40
2022-08-11T00:58:44.836Z,975.46
2022-08-11T00:59:44.826Z,975.43
2022-08-11T01:00:44.911Z,975.42
2022-08-11T01:01:44.815Z,975.45
2022-08-11T01:02:44.810Z,975.41
2022-08-11T01:03:44.801Z,975.42
2022-08-11T01:04:44.799Z,975.44
2022-08-11T01:05:44.791Z,975.45
2022-08-11T01:06:44.786Z,975.48
2022-08-11T01:08:02.916Z,975.45
2022-08-11T01:08:44.873Z,975.45
2022-08-11T01:09:44.775Z,975.45
2022-08-11T01:10:44.771Z,975.48
2022-08-11T01:11:55.130Z,975.44
2022-08-11T01:12:44.751Z,975.45
2022-08-11T01:13:44.742Z,975.46
2022-08-11T01:14:44.739Z,975.44
2022-08-11T01:15:55.839Z,975.45
2022-08-11T01:16:44.726Z,975.42
2022-08-11T01:17:44.730Z,975.43
2022-08-11T01:18:44.719Z,975.45
2022-08-11T01:20:46.085Z,975.46
2022-08-11T01:20:48.969Z,975.44
2022-08-11T01:21:44.696Z,975.42
2022-08-11T01:22:44.685Z,975.44
2022-08-11T01:23:44.680Z,975.43
2022-08-11T01:24:44.674Z,975.44
2022-08-11T01:25:57.449Z,975.48
2022-08-11T01:26:44.661Z,975.47
2022-08-11T01:27:44.657Z,975.47
2022-08-11T01:28:44.650Z,975.48
2022-08-11T01:29:49.233Z,975.50
2022-08-11T01:30:44.637Z,975.46
2022-08-11T01:31:44.633Z,975.46
2022-08-11T01:32:44.625Z,975.47
2022-08-11T01:33:44.621Z,975.46
2022-08-11T01:34:44.712Z,975.46
2022-08-11T01:35:44.607Z,975.43
2022-08-11T01:36:44.603Z,975.46
2022-08-11T01:37:44.597Z,975.46
2022-08-11T01:38:44.590Z,975.46
2022-08-11T01:39:44.618Z,975.42
2022-08-11T01:40:44.576Z,975.46
2022-08-11T01:41:44.574Z,975.45
2022-08-11T01:42:44.562Z,975.43
2022-08-11T01:43:44.559Z,975.45
2022-08-11T01:44:44.550Z,975.46
2022-08-11T01:45:44.548Z,975.42
2022-08-11T01:46:44.538Z,975.43
2022-08-11T01:47:53.336Z,975.44
2022-08-11T01:48:44.526Z,975.42
2022-08-11T01:50:08.040Z,975.41
2022-08-11T01:50:44.513Z,975.43
2022-08-11T01:51:45.340Z,975.42
2022-08-11T01:52:44.944Z,975.39
2022-08-11T01:53:44.497Z,975.42
2022-08-11T01:54:44.489Z,975.43
2022-08-11T01:55:44.486Z,975.45
2022-08-11T01:56:44.477Z,975.42
2022-08-11T01:57:44.474Z,975.45
2022-08-11T01:58:44.567Z,975.42
2022-08-11T01:59:44.460Z,975.43
2022-08-11T02:00:44.488Z,975.41
2022-08-11T02:01:44.451Z,975.41
2022-08-11T02:02:44.440Z,975.40
2022-08-11T02:03:44.435Z,975.42
2022-08-11T02:04:44.429Z,975.44
2022-08-11T02:05:44.423Z,975.41
2022-08-11T02:06:44.414Z,975.39
2022-08-11T02:07:44.412Z,975.40
2022-08-11T02:08:49.559Z,975.36
2022-08-11T02:09:49.683Z,975.38
2022-08-11T02:10:50.694Z,975.37
2022-08-11T02:11:44.386Z,975.39
2022-08-11T02:12:52.524Z,975.37
2022-08-11T02:13:44.716Z,975.41
2022-08-11T02:15:04.499Z,975.36
2022-08-11T02:15:44.360Z,975.37
2022-08-11T02:16:44.352Z,975.38
2022-08-11T02:17:44.346Z,975.38
2022-08-11T02:18:44.339Z,975.35
2022-08-11T02:19:45.384Z,975.35
2022-08-11T02:20:44.331Z,975.34
2022-08-11T02:21:44.322Z,975.36
2022-08-11T02:22:44.312Z,975.29
2022-08-11T02:24:04.161Z,975.37
2022-08-11T02:24:44.299Z,975.32
2022-08-11T02:25:44.296Z,975.30
2022-08-11T02:26:44.286Z,975.32
2022-08-11T02:27:44.282Z,975.32
2022-08-11T02:28:46.408Z,975.37
2022-08-11T02:29:44.272Z,975.33
2022-08-11T02:30:44.260Z,975.31
2022-08-11T02:32:24.003Z,975.32
2022-08-11T02:32:44.247Z,975.33
2022-08-11T02:33:44.244Z,975.30
2022-08-11T02:34:44.233Z,975.30
2022-08-11T02:35:44.228Z,975.33
2022-08-11T02:36:44.221Z,975.29
2022-08-11T02:37:44.218Z,975.30
2022-08-11T02:38:44.206Z,975.36
2022-08-11T02:39:44.319Z,975.33
2022-08-11T02:40:44.194Z,975.29
2022-08-11T02:41:44.190Z,975.31
2022-08-11T02:42:44.455Z,975.32
2022-08-11T02:43:46.150Z,975.30
2022-08-11T02:44:44.168Z,975.27
2022-08-11T02:45:44.163Z,975.27
2022-08-11T02:46:44.153Z,975.25
2022-08-11T02:47:44.150Z,975.31
2022-08-11T02:48:44.141Z,975.25
2022-08-11T02:49:44.139Z,975.27
2022-08-11T02:50:44.127Z,975.23
2022-08-11T02:51:44.124Z,975.26
2022-08-11T02:52:44.116Z,975.24
2022-08-11T02:53:44.110Z,975.24
2022-08-11T02:54:44.103Z,975.21
2022-08-11T02:55:48.077Z,975.25
2022-08-11T02:57:17.299Z,975.26
2022-08-11T02:57:44.080Z,975.29
2022-08-11T02:58:44.075Z,975.29
2022-08-11T02:59:44.068Z,975.25
2022-08-11T03:00:44.063Z,975.24
2022-08-11T03:01:44.129Z,975.22
2022-08-11T03:02:44.050Z,975.26
2022-08-11T03:03:44.040Z,975.26
2022-08-11T03:04:44.034Z,975.27
2022-08-11T03:05:44.027Z,975.26
2022-08-11T03:06:44.022Z,975.28
2022-08-11T03:07:44.013Z,975.29
2022-08-11T03:08:44.022Z,975.26
2022-08-11T03:09:44.000Z,975.28
2022-08-11T03:10:43.994Z,975.26
2022-08-11T03:11:43.985Z,975.25
2022-08-11T03:12:43.983Z,975.25
2022-08-11T03:13:43.972Z,975.21
2022-08-11T03:14:43.973Z,975.27
2022-08-11T03:15:44.638Z,975.23
2022-08-11T03:16:43.953Z,975.22
2022-08-11T03:17:43.947Z,975.22
2022-08-11T03:18:43.937Z,975.22
2022-08-11T03:19:43.928Z,975.18
2022-08-11T03:20:43.926Z,975.18
2022-08-11T03:22:01.776Z,975.21
2022-08-11T03:22:43.911Z,975.21
2022-08-11T03:23:43.901Z,975.24
2022-08-11T03:24:43.897Z,975.24
2022-08-11T03:25:43.887Z,975.23
2022-08-11T03:26:43.880Z,975.23
2022-08-11T03:27:43.874Z,975.22
2022-08-11T03:28:43.868Z,975.23
2022-08-11T03:29:43.864Z,975.19
2022-08-11T03:30:43.853Z,975.19
2022-08-11T03:31:44.648Z,975.23
2022-08-11T03:32:43.840Z,975.21
2022-08-11T03:33:43.832Z,975.21
2022-08-11T03:34:43.827Z,975.22
2022-08-11T03:35:43.817Z,975.23
2022-08-11T03:37:15.433Z,975.24
2022-08-11T03:37:43.803Z,975.24
2022-08-11T03:38:43.799Z,975.23
2022-08-11T03:39:56.054Z,975.22
2022-08-11T03:40:43.788Z,975.21
2022-08-11T03:42:01.155Z,975.25
2022-08-11T03:42:43.772Z,975.22
2022-08-11T03:43:50.150Z,975.25
2022-08-11T03:44:43.755Z,975.20
2022-08-11T03:45:43.748Z,975.23
2022-08-11T03:46:43.741Z,975.23
2022-08-11T03:47:52.625Z,975.29
2022-08-11T03:48:43.729Z,975.24
2022-08-11T03:49:43.735Z,975.24
2022-08-11T03:50:43.712Z,975.25
2022-08-11T03:51:51.669Z,975.24
2022-08-11T03:52:43.701Z,975.24
2022-08-11T03:53:43.692Z,975.28
2022-08-11T03:54:43.686Z,975.28
2022-08-11T03:55:43.677Z,975.25
2022-08-11T03:56:43.671Z,975.24
2022-08-11T03:57:43.663Z,975.27
2022-08-11T03:58:43.861Z,975.28
2022-08-11T03:59:43.649Z,975.27
2022-08-11T04:00:43.645Z,975.30
2022-08-11T04:01:43.677Z,975.28
2022-08-11T04:02:43.629Z,975.32
2022-08-11T04:03:43.619Z,975.26
2022-08-11T04:04:47.545Z,975.28
2022-08-11T04:05:43.607Z,975.30
2022-08-11T04:06:43.599Z,975.25
2022-08-11T04:07:43.591Z,975.32
2022-08-11T04:08:43.586Z,975.26
2022-08-11T04:09:43.577Z,975.30
2022-08-11T04:10:43.570Z,975.29
2022-08-11T04:11:43.561Z,975.30
2022-08-11T04:12:47.637Z,975.28
2022-08-11T04:13:43.549Z,975.27
2022-08-11T04:14:43.544Z,975.28
2022-08-11T04:15:43.533Z,975.28
2022-08-11T04:16:43.528Z,975.26
2022-08-11T04:17:43.520Z,975.28
2022-08-11T04:18:43.514Z,975.26
2022-08-11T04:19:43.522Z,975.27
2022-08-11T04:20:43.510Z,975.31
2022-08-11T04:21:43.493Z,975.30
2022-08-11T04:22:43.487Z,975.30
2022-08-11T04:24:36.903Z,975.32
2022-08-11T04:24:48.386Z,975.27
2022-08-11T04:25:55.862Z,975.29
2022-08-11T04:26:43.456Z,975.28
2022-08-11T04:27:43.450Z,975.31
2022-08-11T04:28:49.776Z,975.25
2022-08-11T04:30:01.907Z,975.25
2022-08-11T04:30:43.428Z,975.30
2022-08-11T04:31:44.347Z,975.33
2022-08-11T04:32:43.415Z,975.32
2022-08-11T04:33:43.408Z,975.29
2022-08-11T04:34:43.399Z,975.34
2022-08-11T04:35:47.360Z,975.33
2022-08-11T04:36:43.386Z,975.31
2022-08-11T04:37:43.377Z,975.36
2022-08-11T04:38:43.371Z,975.39
2022-08-11T04:39:43.442Z,975.35
2022-08-11T04:40:43.356Z,975.35
2022-08-11T04:41:43.348Z,975.39
2022-08-11T04:42:43.345Z,975.39
2022-08-11T04:44:02.864Z,975.39
2022-08-11T04:44:43.330Z,975.39
2022-08-11T04:45:43.320Z,975.41
2022-08-11T04:46:43.314Z,975.41
2022-08-11T04:48:03.481Z,975.37
2022-08-11T04:48:43.302Z,975.41
2022-08-11T04:49:43.292Z,975.41
2022-08-11T04:50:43.288Z,975.46
2022-08-11T04:51:43.276Z,975.44
2022-08-11T04:52:43.549Z,975.48
2022-08-11T04:53:43.263Z,975.51
2022-08-11T04:54:43.257Z,975.50
2022-08-11T04:55:43.249Z,975.51
2022-08-11T04:56:43.243Z,975.54
2022-08-11T04:57:43.237Z,975.50
2022-08-11T04:58:43.231Z,975.50
2022-08-11T04:59:43.224Z,975.55
2022-08-11T05:00:43.220Z,975.57
2022-08-11T05:01:43.347Z,975.63
2022-08-11T05:02:43.210Z,975.57
2022-08-11T05:03:43.203Z,975.58
2022-08-11T05:04:43.199Z,975.59
2022-08-11T05:05:56.357Z,975.57
2022-08-11T05:06:43.192Z,975.57
2022-08-11T05:07:43.249Z,975.64
2022-08-11T05:08:43.184Z,975.59
2022-08-11T05:09:43.179Z,975.58
2022-08-11T05:10:43.489Z,975.61
2022-08-11T05:11:43.169Z,975.61
2022-08-11T05:12:43.168Z,975.63
2022-08-11T05:13:43.162Z,975.59
2022-08-11T05:14:43.160Z,975.63
2022-08-11T05:15:45.387Z,975.64
2022-08-11T05:16:43.154Z,975.67
2022-08-11T05:17:43.147Z,975.66
2022-08-11T05:18:43.148Z,975.65
2022-08-11T05:19:43.140Z,975.68
2022-08-11T05:20:43.139Z,975.66
2022-08-11T05:21:44.437Z,975.65
2022-08-11T05:22:43.129Z,975.66
2022-08-11T05:23:43.124Z,975.62
2022-08-11T05:24:43.123Z,975.64
2022-08-11T05:26:45.381Z,975.61
2022-08-11T05:26:48.930Z,975.59
2022-08-11T05:27:43.109Z,975.62
2022-08-11T05:28:43.106Z,975.60
2022-08-11T05:29:43.101Z,975.58
2022-08-11T05:30:43.097Z,975.61
2022-08-11T05:31:43.091Z,975.57
2022-08-11T05:32:43.095Z,975.57
2022-08-11T05:33:43.087Z,975.59
2022-08-11T05:34:43.080Z,975.60
2022-08-11T05:36:01.567Z,975.63
2022-08-11T05:36:43.070Z,975.59
2022-08-11T05:37:43.070Z,975.60
2022-08-11T05:38:43.062Z,975.55
2022-08-11T05:39:43.122Z,975.59
2022-08-11T05:40:43.053Z,975.56
2022-08-11T05:41:43.051Z,975.58
2022-08-11T05:42:43.391Z,975.59
2022-08-11T05:44:20.532Z,975.62
2022-08-11T05:44:43.037Z,975.57
2022-08-11T05:45:57.410Z,975.61
2022-08-11T05:46:43.029Z,975.60
2022-08-11T05:47:43.027Z,975.63
2022-08-11T05:48:43.021Z,975.61
2022-08-11T05:49:43.018Z,975.70
2022-08-11T05:50:43.012Z,975.62
2022-08-11T05:51:54.611Z,975.74
2022-08-11T05:52:43.264Z,975.71
2022-08-11T05:53:45.712Z,975.68
2022-08-11T05:54:42.994Z,975.70
2022-08-11T05:56:01.886Z,975.73
2022-08-11T05:56:42.984Z,975.68
2022-08-11T05:57:50.931Z,975.73
2022-08-11T05:58:43.270Z,975.75
2022-08-11T05:59:42.975Z,975.77
2022-08-11T06:00:42.968Z,975.81
2022-08-11T06:01:43.023Z,975.76
2022-08-11T06:02:42.958Z,975.83
2022-08-11T06:03:42.958Z,975.84
2022-08-11T06:04:42.950Z,975.85
2022-08-11T06:05:43.845Z,975.87
2022-08-11T06:06:45.537Z,975.87
2022-08-11T06:07:49.012Z,975.90
2022-08-11T06:08:42.933Z,975.90
2022-08-11T06:09:42.931Z,975.88
2022-08-11T06:10:42.923Z,975.87
2022-08-11T06:11:44.808Z,975.97
2022-08-11T06:12:42.914Z,975.88
2022-08-11T06:13:42.911Z,975.83
2022-08-11T06:14:42.915Z,975.79
2022-08-11T06:15:42.901Z,975.85
2022-08-11T06:16:42.894Z,975.83
2022-08-11T06:17:42.892Z,975.84
2022-08-11T06:18:42.885Z,975.83
2022-08-11T06:19:42.883Z,975.81
2022-08-11T06:20:42.876Z,975.82
2022-08-11T06:21:42.873Z,975.79
2022-08-11T06:22:42.871Z,975.80
2022-08-11T06:23:42.863Z,975.87
2022-08-11T06:24:42.857Z,975.83
2022-08-11T06:25:42.854Z,975.83
2022-08-11T06:27:01.637Z,975.93
2022-08-11T06:27:42.844Z,975.76
2022-08-11T06:28:42.938Z,975.90
2022-08-11T06:29:50.159Z,975.79
2022-08-11T06:30:42.876Z,975.85
2022-08-11T06:31:42.825Z,975.87
2022-08-11T06:32:42.818Z,975.84
2022-08-11T06:33:42.818Z,975.84
2022-08-11T06:34:42.809Z,975.78
2022-08-11T06:35:42.807Z,975.83
2022-08-11T06:36:42.800Z,975.80
2022-08-11T06:37:42.795Z,975.85
2022-08-11T06:38:42.789Z,975.87
2022-08-11T06:39:42.853Z,975.85
2022-08-11T06:40:42.781Z,975.89
2022-08-11T06:41:42.777Z,975.82
2022-08-11T06:42:42.771Z,975.83
2022-08-11T06:43:42.766Z,975.90
2022-08-11T06:44:42.762Z,975.84
2022-08-11T06:45:42.760Z,975.89
2022-08-11T06:46:42.754Z,975.90
2022-08-11T06:47:42.748Z,975.96
2022-08-11T06:48:42.742Z,975.90
2022-08-11T06:49:42.739Z,975.91
2022-08-11T06:50:42.730Z,975.90
2022-08-11T06:51:42.729Z,975.94
2022-08-11T06:52:42.792Z,975.93
2022-08-11T06:53:42.769Z,975.87
2022-08-11T06:54:42.712Z,975.99
2022-08-11T06:55:57.479Z,975.89
2022-08-11T06:56:42.705Z,975.97
2022-08-11T06:57:42.700Z,975.89
2022-08-11T06:58:42.692Z,975.97
2022-08-11T06:59:42.690Z,975.95
2022-08-11T07:00:42.683Z,975.95
2022-08-11T07:01:42.730Z,975.86
2022-08-11T07:02:42.938Z,975.92
2022-08-11T07:03:42.675Z,975.92
2022-08-11T07:04:42.665Z,975.89
2022-08-11T07:05:42.665Z,975.89
2022-08-11T07:06:50.479Z,975.89
2022-08-11T07:07:42.652Z,975.89
2022-08-11T07:08:42.646Z,975.89
2022-08-11T07:09:42.642Z,975.86
2022-08-11T07:10:42.636Z,975.90
2022-08-11T07:11:42.647Z,975.87
2022-08-11T07:12:42.629Z,975.85
2022-08-11T07:13:44.809Z,975.87
2022-08-11T07:14:42.618Z,975.88
2022-08-11T07:16:12.769Z,975.87
2022-08-11T07:16:42.610Z,975.87
2022-08-11T07:17:42.609Z,975.79
2022-08-11T07:18:42.600Z,975.89
2022-08-11T07:19:42.598Z,975.90
2022-08-11T07:20:42.591Z,975.80
2022-08-11T07:22:00.262Z,975.84
2022-08-11T07:22:42.583Z,975.88
2022-08-11T07:23:43.315Z,975.80
2022-08-11T07:25:01.989Z,975.91
2022-08-11T07:25:43.477Z,975.93
2022-08-11T07:26:42.565Z,975.84
2022-08-11T07:27:42.562Z,975.84
2022-08-11T07:28:42.555Z,975.88
2022-08-11T07:29:42.555Z,975.80
2022-08-11T07:30:42.546Z,975.82
2022-08-11T07:31:42.550Z,975.83
2022-08-11T07:32:42.537Z,975.83
2022-08-11T07:34:07.617Z,975.83
2022-08-11T07:34:42.530Z,975.81
2022-08-11T07:35:42.527Z,975.82
2022-08-11T07:36:42.521Z,975.80
2022-08-11T07:37:42.517Z,975.82
2022-08-11T07:38:42.511Z,975.84
2022-08-11T07:39:42.596Z,975.86
2022-08-11T07:40:42.502Z,975.83
2022-08-11T07:41:42.501Z,975.80
2022-08-11T07:42:42.499Z,975.83
2022-08-11T07:43:42.493Z,975.89
2022-08-11T07:44:42.487Z,975.81
2022-08-11T07:45:42.484Z,975.80
2022-08-11T07:46:42.478Z,975.78
2022-08-11T07:47:42.476Z,975.80
2022-08-11T07:48:42.470Z,975.77
2022-08-11T07:49:42.470Z,975.72
2022-08-11T07:50:42.461Z,975.78
2022-08-11T07:51:42.463Z,975.82
2022-08-11T07:52:42.453Z,975.77
2022-08-11T07:53:42.459Z,975.70
2022-08-11T07:54:42.445Z,975.78
2022-08-11T07:55:51.099Z,975.75
2022-08-11T07:56:55.267Z,975.76
2022-08-11T07:58:05.554Z,975.75
2022-08-11T07:58:45.580Z,975.78
2022-08-11T08:00:03.285Z,975.75
2022-08-11T08:00:42.424Z,975.73
2022-08-11T08:01:42.494Z,975.69
2022-08-11T08:02:42.414Z,975.73
2022-08-11T08:03:54.019Z,975.78
2022-08-11T08:04:46.864Z,975.76
2022-08-11T08:05:42.415Z,975.69
2022-08-11T08:06:42.400Z,975.74
2022-08-11T08:07:42.400Z,975.71
2022-08-11T08:08:42.392Z,975.68
2022-08-11T08:09:42.390Z,975.74
2022-08-11T08:10:42.386Z,975.71
2022-08-11T08:11:42.384Z,975.75
2022-08-11T08:12:42.477Z,975.74
2022-08-11T08:13:42.377Z,975.78
2022-08-11T08:14:42.371Z,975.75
2022-08-11T08:15:42.369Z,975.74
2022-08-11T08:16:42.364Z,975.79
2022-08-11T08:17:42.365Z,975.75
2022-08-11T08:18:42.358Z,975.75
2022-08-11T08:19:42.357Z,975.71
2022-08-11T08:20:42.350Z,975.73
2022-08-11T08:21:45.399Z,975.76
2022-08-11T08:22:47.886Z,975.70
2022-08-11T08:23:42.347Z,975.71
2022-08-11T08:24:42.337Z,975.72
2022-08-11T08:25:42.345Z,975.77
2022-08-11T08:26:42.335Z,975.81
2022-08-11T08:27:42.331Z,975.74
2022-08-11T08:28:42.327Z,975.75
2022-08-11T08:29:42.325Z,975.76
2022-08-11T08:30:42.319Z,975.78
2022-08-11T08:31:42.319Z,975.87
2022-08-11T08:32:42.412Z,975.81
2022-08-11T08:33:42.319Z,975.84
2022-08-11T08:34:42.307Z,975.78
2022-08-11T08:35:54.377Z,975.84
2022-08-11T08:36:42.302Z,975.80
2022-08-11T08:37:46.118Z,975.76
2022-08-11T08:38:42.350Z,975.77
2022-08-11T08:39:42.391Z,975.82
2022-08-11T08:40:42.290Z,975.84
2022-08-11T08:41:42.303Z,975.87
2022-08-11T08:42:45.239Z,975.80
2022-08-11T08:43:48.814Z,975.86
2022-08-11T08:44:44.929Z,975.84
2022-08-11T08:45:42.277Z,975.88
2022-08-11T08:46:42.273Z,975.83
2022-08-11T08:47:43.502Z,975.79
2022-08-11T08:48:42.271Z,975.79
2022-08-11T08:49:42.266Z,975.76
2022-08-11T08:50:42.261Z,975.78
2022-08-11T08:51:57.883Z,975.82
2022-08-11T08:52:43.954Z,975.81
2022-08-11T08:53:52.676Z,975.83
2022-08-11T08:54:42.259Z,975.85
2022-08-11T08:55:45.430Z,975.83
2022-08-11T08:56:42.246Z,975.78
2022-08-11T08:57:42.419Z,975.80
2022-08-11T08:58:42.241Z,975.81
2022-08-11T08:59:49.264Z,975.81
2022-08-11T09:01:42.339Z,975.78
2022-08-11T09:02:42.232Z,975.76
2022-08-11T09:04:05.030Z,975.80
2022-08-11T09:04:42.278Z,975.71
2022-08-11T09:05:42.224Z,975.69
2022-08-11T09:06:42.222Z,975.75
2022-08-11T09:07:42.581Z,975.76
2022-08-11T09:08:42.216Z,975.76
2022-08-11T09:09:42.213Z,975.74
2022-08-11T09:10:42.212Z,975.71
2022-08-11T09:11:42.209Z,975.79
2022-08-11T09:12:42.232Z,975.82
2022-08-11T09:13:42.206Z,975.74
2022-08-11T09:14:42.202Z,975.78
2022-08-11T09:15:42.198Z,975.73
2022-08-11T09:16:42.199Z,975.75
2022-08-11T09:17:42.198Z,975.70
2022-08-11T09:18:42.194Z,975.81
2022-08-11T09:19:42.193Z,975.75
2022-08-11T09:20:42.190Z,975.73
2022-08-11T09:21:48.754Z,975.73
2022-08-11T09:22:42.188Z,975.68
2022-08-11T09:24:08.875Z,975.68
2022-08-11T09:24:42.181Z,975.66
2022-08-11T09:25:42.176Z,975.69
2022-08-11T09:26:42.176Z,975.68
2022-08-11T09:27:50.435Z,975.65
2022-08-11T09:28:42.173Z,975.67
2022-08-11T09:29:42.169Z,975.72
2022-08-11T09:30:42.173Z,975.73
2022-08-11T09:31:42.163Z,975.72
2022-08-11T09:32:42.163Z,975.67
2022-08-11T09:33:42.941Z,975.68
2022-08-11T09:34:42.159Z,975.73
2022-08-11T09:35:42.155Z,975.71
2022-08-11T09:36:42.155Z,975.74
2022-08-11T09:37:54.132Z,975.76
2022-08-11T09:38:46.123Z,975.71
2022-08-11T09:39:42.612Z,975.64
2022-08-11T09:40:42.147Z,975.60
2022-08-11T09:42:00.780Z,975.63
2022-08-11T09:42:42.143Z,975.62
2022-08-11T09:43:42.138Z,975.58
2022-08-11T09:44:42.139Z,975.53
2022-08-11T09:45:42.135Z,975.62
2022-08-11T09:46:42.140Z,975.61
2022-08-11T09:47:42.131Z,975.57
2022-08-11T09:48:42.135Z,975.63
2022-08-11T09:49:42.132Z,975.62
2022-08-11T09:50:42.125Z,975.57
2022-08-11T09:51:42.126Z,975.54
2022-08-11T09:52:57.209Z,975.62
2022-08-11T09:53:42.123Z,975.55
2022-08-11T09:54:42.117Z,975.52
2022-08-11T09:55:42.118Z,975.44
2022-08-11T09:56:42.114Z,975.54
2022-08-11T09:57:42.115Z,975.55
2022-08-11T09:58:43.582Z,975.54
2022-08-11T09:59:42.111Z,975.55
2022-08-11T10:00:42.107Z,975.57
2022-08-11T10:01:42.241Z,975.52
2022-08-11T10:02:42.203Z,975.54
2022-08-11T10:03:42.104Z,975.43
2022-08-11T10:04:42.101Z,975.52
2022-08-11T10:05:42.102Z,975.46
2022-08-11T10:06:42.098Z,975.46
2022-08-11T10:07:42.098Z,975.43
2022-08-11T10:08:42.143Z,975.47
2022-08-11T10:09:42.104Z,975.48
2022-08-11T10:10:42.090Z,975.43
2022-08-11T10:11:42.089Z,975.51
2022-08-11T10:12:42.087Z,975.45
2022-08-11T10:14:31.497Z,975.50
2022-08-11T10:14:44.669Z,975.50
2022-08-11T10:16:03.600Z,975.42
2022-08-11T10:16:42.082Z,975.42
2022-08-11T10:17:42.083Z,975.46
2022-08-11T10:18:42.078Z,975.42
2022-08-11T10:19:42.078Z,975.37
2022-08-11T10:20:42.076Z,975.35
2022-08-11T10:21:42.141Z,975.34
2022-08-11T10:22:42.072Z,975.36
2022-08-11T10:24:01.287Z,975.35
2022-08-11T10:24:42.069Z,975.27
2022-08-11T10:25:42.085Z,975.37
2022-08-11T10:26:42.066Z,975.34
2022-08-11T10:28:16.915Z,975.30
2022-08-11T10:28:55.950Z,975.30
2022-08-11T10:29:44.463Z,975.34
2022-08-11T10:30:42.397Z,975.38
2022-08-11T10:31:56.917Z,975.35
2022-08-11T10:32:57.223Z,975.30
2022-08-11T10:33:59.162Z,975.30
2022-08-11T10:34:42.059Z,975.34
2022-08-11T10:35:42.058Z,975.36
2022-08-11T10:36:42.055Z,975.32
2022-08-11T10:38:07.700Z,975.36
2022-08-11T10:38:42.053Z,975.25
2022-08-11T10:39:42.094Z,975.24
2022-08-11T10:40:42.059Z,975.27
2022-08-11T10:42:06.639Z,975.31
2022-08-11T10:42:57.514Z,975.29
2022-08-11T10:44:02.435Z,975.24
2022-08-11T10:44:42.048Z,975.24
2022-08-11T10:45:42.049Z,975.28
2022-08-11T10:46:42.046Z,975.34
2022-08-11T10:47:46.755Z,975.33
2022-08-11T10:48:42.046Z,975.30
2022-08-11T10:49:42.045Z,975.28
2022-08-11T10:50:42.041Z,975.23
2022-08-11T10:51:51.240Z,975.19
2022-08-11T10:52:42.042Z,975.19
2022-08-11T10:53:42.042Z,975.28
2022-08-11T10:54:42.038Z,975.23
2022-08-11T10:55:42.040Z,975.25
2022-08-11T10:56:42.038Z,975.28
2022-08-11T10:57:42.115Z,975.22
2022-08-11T10:58:42.035Z,975.19
2022-08-11T10:59:42.036Z,975.17
2022-08-11T11:00:42.034Z,975.23
2022-08-11T11:01:42.111Z,975.34
2022-08-11T11:02:42.032Z,975.25
2022-08-11T11:03:42.032Z,975.19
2022-08-11T11:04:42.033Z,975.22
2022-08-11T11:06:12.829Z,975.22
2022-08-11T11:06:42.030Z,975.14
2022-08-11T11:07:44.380Z,975.15
2022-08-11T11:08:42.066Z,975.13
2022-08-11T11:09:42.031Z,975.13
2022-08-11T11:10:42.033Z,975.21
2022-08-11T11:11:42.035Z,975.21
2022-08-11T11:12:42.038Z,975.14
2022-08-11T11:13:42.028Z,975.13
2022-08-11T11:14:46.726Z,975.05
2022-08-11T11:15:42.027Z,975.12
2022-08-11T11:16:42.024Z,975.15
2022-08-11T11:17:42.025Z,975.13
2022-08-11T11:18:42.023Z,975.08
2022-08-11T11:19:42.031Z,975.21
2022-08-11T11:20:47.078Z,975.10
2022-08-11T11:21:42.329Z,975.09
2022-08-11T11:22:42.019Z,975.16
2022-08-11T11:23:42.021Z,975.11
2022-08-11T11:24:42.082Z,975.15
2022-08-11T11:25:42.021Z,975.17
2022-08-11T11:26:42.017Z,975.25
2022-08-11T11:27:46.730Z,975.20
2022-08-11T11:28:42.017Z,975.19
2022-08-11T11:29:42.018Z,975.24
2022-08-11T11:30:42.016Z,975.17
2022-08-11T11:31:42.017Z,975.25
2022-08-11T11:32:44.387Z,975.26
2022-08-11T11:34:06.969Z,975.09
2022-08-11T11:34:52.850Z,975.13
2022-08-11T11:35:42.018Z,975.13
2022-08-11T11:36:42.013Z,975.17
2022-08-11T11:37:42.014Z,975.24
2022-08-11T11:38:42.011Z,975.20
2022-08-11T11:39:42.054Z,975.21
2022-08-11T11:40:42.010Z,975.13
2022-08-11T11:41:42.012Z,975.07
2022-08-11T11:42:42.010Z,975.06
2022-08-11T11:43:42.013Z,975.09
2022-08-11T11:44:42.011Z,975.02
2022-08-11T11:45:42.011Z,974.97
2022-08-11T11:46:42.009Z,974.91
2022-08-11T11:47:42.009Z,974.98
2022-08-11T11:48:42.007Z,974.96
2022-08-11T11:49:42.016Z,974.97
2022-08-11T11:50:42.004Z,974.84
2022-08-11T11:51:42.007Z,974.99
2022-08-11T11:52:42.007Z,974.95
2022-08-11T11:53:42.006Z,974.94
2022-08-11T11:54:42.003Z,974.81
2022-08-11T11:55:42.006Z,974.94
2022-08-11T11:56:42.006Z,975.02
2022-08-11T11:57:42.142Z,974.89
2022-08-11T11:58:42.003Z,974.89
2022-08-11T11:59:42.008Z,974.84
2022-08-11T12:00:43.536Z,974.85
2022-08-11T12:01:42.005Z,974.91
2022-08-11T12:02:42.001Z,974.87
2022-08-11T12:03:42.117Z,974.95
2022-08-11T12:04:42.008Z,974.90
2022-08-11T12:05:42.006Z,974.82
2022-08-11T12:06:42.003Z,974.94
2022-08-11T12:07:42.003Z,974.76
2022-08-11T12:08:42.003Z,974.80
2022-08-11T12:09:42.004Z,974.77
2022-08-11T12:10:42.001Z,974.76
2022-08-11T12:11:43.505Z,974.73
2022-08-11T12:12:42.003Z,974.74
2022-08-11T12:13:42.005Z,974.77
2022-08-11T12:14:42.002Z,974.75
2022-08-11T12:16:34.558Z,974.67
2022-08-11T12:16:41.999Z,974.72
2022-08-11T12:17:42.058Z,974.76
2022-08-11T12:18:42.000Z,974.64
2022-08-11T12:19:48.303Z,974.70
2022-08-11T12:20:42.000Z,974.66
2022-08-11T12:21:42.009Z,974.64
2022-08-11T12:22:42.002Z,974.67
2022-08-11T12:23:42.004Z,974.61
2022-08-11T12:24:42.000Z,974.54
2022-08-11T12:25:42.005Z,974.60
2022-08-11T12:26:42.003Z,974.53
2022-08-11T12:27:42.143Z,974.58
2022-08-11T12:28:42.004Z,974.59
2022-08-11T12:29:43.984Z,974.50